Lemolo, Washington
Current Conditions -  °F | °C
As of 1:15 AM on Monday 20 Oct 2014 (Local Time) from KPWT Reporting Station
Broken Clouds Broken Clouds  
Wind Chill: 55°   Ceiling: 4300
Heat Index: 55°   Visibility: 9mi
Dew Point: 55°   Wind: 0mph
Humidity: 100%   Direction: NA
Pressure: 29.73"   Gusts: NA
Location:  47.7571°N, 122.623°W
Report Text: KPWT 200815Z AUTO 00000KT 9SM FEW034 BKN043 BKN050 13/13 A2973 RMK AO1 P0001
Loading
Personal Weather Stations






























Interactive Weather Map
Tropical Storm Tracking
New forecast layout! Learn more

10-Day Weather Forecast

Advertisements
Track Severe Weather on mobile